Terminal Aerodrome Forecast
Issued by NWS Rapid City, SD

Home | Current Version | Previous Version | Graphics & Text | Print | Product List | Glossary On
Versions: 1 2 3 4 5 6 7 8 9 10 11 12 13 14 15 16 17 18 19 20 21
000
FTUS43 KUNR 141720
TAFRAP
TAF
KRAP 141720Z 1418/1518 33015KT P6SM SCT050 BKN100
     FM141900 34023G33KT 3SM -SN BKN025
     FM150200 34020G30KT P6SM SCT025 BKN060
     FM150800 34018G28KT P6SM SKC=

USA.gov is the U.S. government's official web portal to all federal, state and local government web resources and services.